createdAt,value
2018-05-07T00:00:57.998Z,99.90
2018-05-07T00:03:25.201Z,99.90
2018-05-07T00:05:52.501Z,99.90
2018-05-07T00:08:19.008Z,99.90
2018-05-07T00:10:45.492Z,99.90
2018-05-07T00:13:12.017Z,99.90
2018-05-07T00:15:38.493Z,99.90
2018-05-07T00:18:05.774Z,99.90
2018-05-07T00:20:32.228Z,99.90
2018-05-07T00:22:59.345Z,99.90
2018-05-07T00:25:25.760Z,99.90
2018-05-07T00:27:52.240Z,99.90
2018-05-07T00:30:18.664Z,99.90
2018-05-07T00:32:45.034Z,99.90
2018-05-07T00:35:11.483Z,99.90
2018-05-07T00:37:38.654Z,99.90
2018-05-07T00:40:05.998Z,99.90
2018-05-07T00:42:32.520Z,99.90
2018-05-07T00:44:58.935Z,99.90
2018-05-07T00:47:25.343Z,99.90
2018-05-07T00:49:52.033Z,99.90
2018-05-07T00:52:18.696Z,99.90
2018-05-07T00:54:57.298Z,99.90
2018-05-07T00:57:25.313Z,99.90
2018-05-07T00:59:51.990Z,99.90
2018-05-07T01:02:18.736Z,99.90
2018-05-07T01:04:45.561Z,99.90
2018-05-07T01:07:11.958Z,99.90
2018-05-07T01:09:38.689Z,99.90
2018-05-07T01:12:05.509Z,99.90
2018-05-07T01:14:31.943Z,99.90
2018-05-07T01:16:58.998Z,99.90
2018-05-07T01:19:25.471Z,99.90
2018-05-07T01:21:51.905Z,99.90
2018-05-07T01:24:18.372Z,99.90
2018-05-07T01:26:44.798Z,99.90
2018-05-07T01:29:11.957Z,99.90
2018-05-07T01:31:38.468Z,99.90
2018-05-07T01:34:05.649Z,99.90
2018-05-07T01:36:32.096Z,99.90
2018-05-07T01:38:58.892Z,99.90
2018-05-07T01:41:25.412Z,99.90
2018-05-07T01:43:51.890Z,99.90
2018-05-07T01:46:18.312Z,99.90
2018-05-07T01:48:44.758Z,99.90
2018-05-07T01:51:11.272Z,99.90
2018-05-07T01:53:37.775Z,99.90
2018-05-07T01:56:04.413Z,99.90
2018-05-07T01:58:30.899Z,99.90
2018-05-07T02:00:58.199Z,99.90
2018-05-07T02:05:53.317Z,99.90
2018-05-07T02:08:20.503Z,99.90
2018-05-07T02:10:47.055Z,99.90
2018-05-07T02:13:14.233Z,99.90
2018-05-07T02:15:40.704Z,99.90
2018-05-07T02:20:35.175Z,99.90
2018-05-07T02:23:02.124Z,99.90
2018-05-07T02:25:28.990Z,99.90
2018-05-07T02:30:28.745Z,99.90
2018-05-07T02:32:55.129Z,99.90
2018-05-07T02:35:21.568Z,99.90
2018-05-07T02:37:48.125Z,99.90
2018-05-07T02:40:14.528Z,99.90
2018-05-07T02:42:41.951Z,99.90
2018-05-07T02:45:08.441Z,99.90
2018-05-07T02:47:34.955Z,99.90
2018-05-07T02:50:01.570Z,99.90
2018-05-07T02:52:28.547Z,99.90
2018-05-07T02:54:54.978Z,99.90
2018-05-07T02:57:21.459Z,99.90
2018-05-07T02:59:48.007Z,99.90
2018-05-07T03:02:14.448Z,99.90
2018-05-07T03:04:40.906Z,99.90
2018-05-07T03:07:07.474Z,99.90
2018-05-07T03:09:34.374Z,99.90
2018-05-07T03:12:00.898Z,99.90
2018-05-07T03:14:27.334Z,99.90
2018-05-07T03:16:53.817Z,99.90
2018-05-07T03:19:20.280Z,99.90
2018-05-07T03:21:46.880Z,99.90
2018-05-07T03:24:13.321Z,99.90
2018-05-07T03:26:40.178Z,99.90
2018-05-07T03:29:06.594Z,99.90
2018-05-07T03:31:32.998Z,99.90
2018-05-07T03:34:00.590Z,99.90
2018-05-07T03:36:27.499Z,99.90
2018-05-07T03:38:54.278Z,99.90
2018-05-07T03:41:20.741Z,99.90
2018-05-07T03:43:48.974Z,99.90
2018-05-07T03:46:15.575Z,99.90
2018-05-07T03:48:42.135Z,99.90
2018-05-07T03:51:09.057Z,99.90
2018-05-07T03:53:35.925Z,99.90
2018-05-07T03:56:02.512Z,99.90
2018-05-07T03:58:30.910Z,99.90
2018-05-07T04:00:57.383Z,99.90
2018-05-07T04:05:52.581Z,99.90
2018-05-07T04:08:19.016Z,99.90
2018-05-07T04:10:45.452Z,99.90
2018-05-07T04:13:12.318Z,99.90
2018-05-07T04:15:38.740Z,99.90
2018-05-07T04:18:17.236Z,99.90
2018-05-07T04:20:56.676Z,99.90
2018-05-07T04:23:35.302Z,99.90
2018-05-07T04:26:02.100Z,99.90
2018-05-07T04:28:28.573Z,99.90
2018-05-07T04:30:55.056Z,99.90
2018-05-07T04:33:22.254Z,99.90
2018-05-07T04:35:49.832Z,99.90
2018-05-07T04:38:16.301Z,99.90
2018-05-07T04:40:43.193Z,99.90
2018-05-07T04:43:10.121Z,99.90
2018-05-07T04:45:38.072Z,99.90
2018-05-07T04:48:04.679Z,99.90
2018-05-07T04:52:59.522Z,99.90
2018-05-07T04:55:26.652Z,99.90
2018-05-07T04:57:53.320Z,99.90
2018-05-07T05:00:20.857Z,99.90
2018-05-07T05:02:48.454Z,99.90
2018-05-07T05:05:15.052Z,99.90
2018-05-07T05:07:42.572Z,99.90
2018-05-07T05:10:09.048Z,99.90
2018-05-07T05:12:35.445Z,99.90
2018-05-07T05:15:02.317Z,99.90
2018-05-07T05:17:28.920Z,99.90
2018-05-07T05:19:55.392Z,99.90
2018-05-07T05:22:21.868Z,99.90
2018-05-07T05:24:49.386Z,99.90
2018-05-07T05:27:16.727Z,99.90
2018-05-07T05:29:43.569Z,99.90
2018-05-07T05:32:11.433Z,99.90
2018-05-07T05:34:37.902Z,99.90
2018-05-07T05:39:43.405Z,99.90
2018-05-07T05:42:10.280Z,99.90
2018-05-07T05:44:36.970Z,99.90
2018-05-07T05:47:05.378Z,99.90
2018-05-07T05:52:02.031Z,99.90
2018-05-07T05:54:28.896Z,99.90
2018-05-07T05:56:56.821Z,99.90
2018-05-07T05:59:23.325Z,99.90
2018-05-07T06:01:51.250Z,99.90
2018-05-07T06:04:19.225Z,99.90
2018-05-07T06:06:46.492Z,99.90
2018-05-07T06:09:13.917Z,99.90
2018-05-07T06:11:41.182Z,99.90
2018-05-07T06:16:36.155Z,99.90
2018-05-07T06:19:02.627Z,99.90
2018-05-07T06:21:29.198Z,99.90
2018-05-07T06:23:56.453Z,99.90
2018-05-07T06:26:24.420Z,99.90
2018-05-07T06:28:50.884Z,99.90
2018-05-07T06:31:17.488Z,99.90
2018-05-07T06:33:44.399Z,99.90
2018-05-07T06:36:12.894Z,99.90
2018-05-07T06:43:43.916Z,99.90
2018-05-07T06:46:11.168Z,99.90
2018-05-07T06:48:38.619Z,99.90
2018-05-07T06:51:06.166Z,99.90
2018-05-07T06:53:32.721Z,99.90
2018-05-07T06:56:00.217Z,99.90
2018-05-07T06:58:26.680Z,99.90
2018-05-07T07:00:53.157Z,99.90
2018-05-07T07:03:20.459Z,99.90
2018-05-07T07:08:15.182Z,99.90
2018-05-07T07:10:41.506Z,99.90
2018-05-07T07:13:09.386Z,99.90
2018-05-07T07:15:36.362Z,99.90
2018-05-07T07:18:02.890Z,99.90
2018-05-07T07:22:57.746Z,99.90
2018-05-07T07:25:24.821Z,99.90
2018-05-07T07:27:51.450Z,99.90
2018-05-07T07:30:18.553Z,99.90
2018-05-07T07:32:45.179Z,99.90
2018-05-07T07:35:12.632Z,99.90
2018-05-07T07:37:39.755Z,99.90
2018-05-07T07:40:06.933Z,99.90
2018-05-07T07:45:02.515Z,99.90
2018-05-07T07:47:29.875Z,99.90
2018-05-07T07:49:57.665Z,99.90
2018-05-07T07:52:25.093Z,99.90
2018-05-07T07:54:51.603Z,99.90
2018-05-07T07:57:18.381Z,99.90
2018-05-07T07:59:44.982Z,99.90
2018-05-07T08:02:11.671Z,99.90
2018-05-07T08:04:38.239Z,99.90
2018-05-07T08:07:04.736Z,99.90
2018-05-07T08:09:31.966Z,94.40
2018-05-07T08:12:00.117Z,82.50
2018-05-07T08:14:27.317Z,75.40
2018-05-07T08:16:54.662Z,70.20
2018-05-07T08:19:21.953Z,67.20
2018-05-07T08:21:48.976Z,69.20
2018-05-07T08:24:16.809Z,61.20
2018-05-07T08:26:44.601Z,58.70
2018-05-07T08:29:11.118Z,70.80
2018-05-07T08:31:38.474Z,57.30
2018-05-07T08:34:06.506Z,56.90
2018-05-07T08:36:33.446Z,54.80
2018-05-07T08:38:59.908Z,60.50
2018-05-07T08:41:26.414Z,57.20
2018-05-07T08:43:53.715Z,51.60
2018-05-07T08:46:20.334Z,60.30
2018-05-07T08:48:47.264Z,53.60
2018-05-07T08:51:15.045Z,52.40
2018-05-07T08:53:42.343Z,47.90
2018-05-07T08:56:08.901Z,53.00
2018-05-07T08:58:36.190Z,47.60
2018-05-07T09:01:03.481Z,47.30
2018-05-07T09:03:30.071Z,54.30
2018-05-07T09:05:58.150Z,46.10
2018-05-07T09:08:25.531Z,45.00
2018-05-07T09:10:52.423Z,52.40
2018-05-07T09:13:19.992Z,44.30
2018-05-07T09:15:46.476Z,51.30
2018-05-07T09:18:14.489Z,44.30
2018-05-07T09:20:41.378Z,43.60
2018-05-07T09:23:08.342Z,42.40
2018-05-07T09:25:35.273Z,43.70
2018-05-07T09:28:02.479Z,42.10
2018-05-07T09:30:29.955Z,41.90
2018-05-07T09:32:56.862Z,42.70
2018-05-07T09:35:23.706Z,42.10
2018-05-07T09:37:50.277Z,46.20
2018-05-07T09:40:16.885Z,47.00
2018-05-07T09:42:43.730Z,40.80
2018-05-07T09:45:11.033Z,40.90
2018-05-07T09:47:40.220Z,40.30
2018-05-07T09:52:36.212Z,40.40
2018-05-07T09:55:03.881Z,40.40
2018-05-07T09:57:30.375Z,48.40
2018-05-07T10:02:25.591Z,42.10
2018-05-07T10:04:52.513Z,39.10
2018-05-07T10:07:19.724Z,39.10
2018-05-07T10:09:47.020Z,40.50
2018-05-07T10:12:14.026Z,42.60
2018-05-07T10:14:40.761Z,48.10
2018-05-07T10:17:07.684Z,40.90
2018-05-07T10:19:34.505Z,47.20
2018-05-07T10:22:01.771Z,39.40
2018-05-07T10:24:28.339Z,45.20
2018-05-07T10:26:56.057Z,39.70
2018-05-07T10:29:23.214Z,40.70
2018-05-07T10:31:50.207Z,41.60
2018-05-07T10:34:24.266Z,39.60
2018-05-07T10:36:52.417Z,39.40
2018-05-07T10:39:19.671Z,39.60
2018-05-07T10:41:46.057Z,46.70
2018-05-07T10:44:13.887Z,38.10
2018-05-07T10:46:41.550Z,40.60
2018-05-07T10:49:10.681Z,45.90
2018-05-07T10:51:39.419Z,37.30
2018-05-07T10:54:05.890Z,41.70
2018-05-07T10:56:32.333Z,42.50
2018-05-07T10:58:58.764Z,44.10
2018-05-07T11:03:53.840Z,38.20
2018-05-07T11:06:20.419Z,42.20
2018-05-07T11:11:14.931Z,44.70
2018-05-07T11:13:41.759Z,37.10
2018-05-07T11:16:08.250Z,41.60
2018-05-07T11:18:35.274Z,37.80
2018-05-07T11:21:02.971Z,37.40
2018-05-07T11:23:30.167Z,37.70
2018-05-07T11:25:56.749Z,48.10
2018-05-07T11:28:24.017Z,40.40
2018-05-07T11:30:51.385Z,40.30
2018-05-07T11:33:19.262Z,39.50
2018-05-07T11:35:45.838Z,47.60
2018-05-07T11:38:12.363Z,47.40
2018-05-07T11:40:38.784Z,46.90
2018-05-07T11:43:05.332Z,49.50
2018-05-07T11:45:32.006Z,52.00
2018-05-07T11:47:58.436Z,49.80
2018-05-07T11:50:25.837Z,44.40
2018-05-07T11:52:53.523Z,56.70
2018-05-07T11:55:20.773Z,58.10
2018-05-07T11:57:47.452Z,57.60
2018-05-07T12:00:14.896Z,48.40
2018-05-07T12:02:42.255Z,49.30
2018-05-07T12:05:08.729Z,57.80
2018-05-07T12:10:03.485Z,61.80
2018-05-07T12:12:30.449Z,50.80
2018-05-07T12:14:56.941Z,60.20
2018-05-07T12:17:23.520Z,58.30
2018-05-07T12:19:50.703Z,46.60
2018-05-07T12:22:18.123Z,48.30
2018-05-07T12:24:46.219Z,47.80
2018-05-07T12:29:42.170Z,56.50
2018-05-07T12:32:09.441Z,49.70
2018-05-07T12:34:36.159Z,56.70
2018-05-07T12:37:03.783Z,47.30
2018-05-07T12:39:31.389Z,49.10
2018-05-07T12:41:59.677Z,47.00
2018-05-07T12:44:27.446Z,46.00
2018-05-07T12:46:55.486Z,57.90
2018-05-07T12:49:22.064Z,52.30
2018-05-07T12:51:49.653Z,46.50
2018-05-07T12:54:17.013Z,44.80
2018-05-07T12:59:12.647Z,51.60
2018-05-07T13:01:39.211Z,52.30
2018-05-07T13:06:33.925Z,54.70
2018-05-07T13:09:00.538Z,54.40
2018-05-07T13:11:28.202Z,45.50
2018-05-07T13:13:54.725Z,53.70
2018-05-07T13:16:21.850Z,46.10
2018-05-07T13:18:49.232Z,46.30
2018-05-07T13:21:16.283Z,45.30
2018-05-07T13:23:43.268Z,46.10
2018-05-07T13:28:38.450Z,46.30
2018-05-07T13:33:33.842Z,46.60
2018-05-07T13:36:01.534Z,47.00
2018-05-07T13:38:28.806Z,46.70
2018-05-07T13:40:55.365Z,54.90
2018-05-07T13:43:22.566Z,46.50
2018-05-07T13:45:49.083Z,51.90
2018-05-07T13:48:15.986Z,54.30
2018-05-07T13:50:44.838Z,47.60
2018-05-07T13:53:12.728Z,47.30
2018-05-07T13:55:39.326Z,56.30
2018-05-07T13:58:07.310Z,45.90
2018-05-07T14:00:33.757Z,54.80
2018-05-07T14:03:00.561Z,51.60
2018-05-07T14:05:27.699Z,45.30
2018-05-07T14:10:22.302Z,49.60
2018-05-07T14:12:49.145Z,43.50
2018-05-07T14:15:16.289Z,42.00
2018-05-07T14:17:43.107Z,40.80
2018-05-07T14:20:11.333Z,38.70
2018-05-07T14:22:38.918Z,37.20
2018-05-07T14:25:05.946Z,39.40
2018-05-07T14:27:34.976Z,37.20
2018-05-07T14:32:30.205Z,37.00
2018-05-07T14:34:57.181Z,36.30
2018-05-07T14:37:24.481Z,33.90
2018-05-07T14:39:52.464Z,34.40
2018-05-07T14:42:20.291Z,34.50
2018-05-07T14:44:47.475Z,41.30
2018-05-07T14:47:14.928Z,36.00
2018-05-07T14:49:42.276Z,35.50
2018-05-07T14:52:08.855Z,41.60
2018-05-07T14:54:36.016Z,40.70
2018-05-07T14:57:02.689Z,38.60
2018-05-07T14:59:29.583Z,41.20
2018-05-07T15:01:59.671Z,34.90
2018-05-07T15:04:27.420Z,35.30
2018-05-07T15:06:54.785Z,40.60
2018-05-07T15:09:24.588Z,34.90
2018-05-07T15:11:51.600Z,38.80
2018-05-07T15:14:22.618Z,39.80
2018-05-07T15:16:50.406Z,35.10
2018-05-07T15:19:18.760Z,35.50
2018-05-07T15:21:46.197Z,40.30
2018-05-07T15:24:13.284Z,38.50
2018-05-07T15:26:40.225Z,36.30
2018-05-07T15:29:07.678Z,36.70
2018-05-07T15:31:35.853Z,36.40
2018-05-07T15:34:02.500Z,43.20
2018-05-07T15:36:29.214Z,43.60
2018-05-07T15:38:55.807Z,40.10
2018-05-07T15:41:26.070Z,42.90
2018-05-07T15:43:53.067Z,39.20
2018-05-07T15:46:20.425Z,37.10
2018-05-07T15:48:46.891Z,39.30
2018-05-07T15:51:14.175Z,37.70
2018-05-07T15:53:40.825Z,40.60
2018-05-07T15:56:08.659Z,36.90
2018-05-07T15:58:35.083Z,38.90
2018-05-07T16:01:01.877Z,41.70
2018-05-07T16:03:28.700Z,38.20
2018-05-07T16:05:55.305Z,41.70
2018-05-07T16:08:22.714Z,43.90
2018-05-07T16:10:49.369Z,41.20
2018-05-07T16:13:19.299Z,41.00
2018-05-07T16:18:14.144Z,44.80
2018-05-07T16:20:41.628Z,39.10
2018-05-07T16:23:08.371Z,43.40
2018-05-07T16:25:35.295Z,41.00
2018-05-07T16:28:02.671Z,39.50
2018-05-07T16:30:29.286Z,44.70
2018-05-07T16:32:56.585Z,39.30
2018-05-07T16:35:24.369Z,39.50
2018-05-07T16:40:19.633Z,41.30
2018-05-07T16:42:46.278Z,45.90
2018-05-07T16:45:12.895Z,46.90
2018-05-07T16:47:41.293Z,43.00
2018-05-07T16:50:09.003Z,41.10
2018-05-07T16:52:35.924Z,43.10
2018-05-07T16:55:03.051Z,40.20
2018-05-07T16:59:58.010Z,46.50
2018-05-07T17:02:26.319Z,40.90
2018-05-07T17:04:54.032Z,42.70
2018-05-07T17:07:20.678Z,41.40
2018-05-07T17:09:48.280Z,40.60
2018-05-07T17:12:15.694Z,41.10
2018-05-07T17:14:45.016Z,46.70
2018-05-07T17:17:12.661Z,48.30
2018-05-07T17:19:40.326Z,42.80
2018-05-07T17:22:07.639Z,45.80
2018-05-07T17:24:35.639Z,42.20
2018-05-07T17:27:02.903Z,41.90
2018-05-07T17:29:30.459Z,42.00
2018-05-07T17:31:57.117Z,47.10
2018-05-07T17:34:24.216Z,42.60
2018-05-07T17:36:52.224Z,42.80
2018-05-07T17:39:18.937Z,46.30
2018-05-07T17:41:45.658Z,46.90
2018-05-07T17:44:24.432Z,48.00
2018-05-07T17:47:04.337Z,43.70
2018-05-07T17:49:31.641Z,44.60
2018-05-07T17:51:58.830Z,45.00
2018-05-07T17:54:29.603Z,52.20
2018-05-07T17:56:56.751Z,49.40
2018-05-07T17:59:23.723Z,51.50
2018-05-07T18:01:50.921Z,50.90
2018-05-07T18:04:18.036Z,46.60
2018-05-07T18:06:45.054Z,53.80
2018-05-07T18:09:17.562Z,52.60
2018-05-07T18:11:47.969Z,54.70
2018-05-07T18:16:44.170Z,52.40
2018-05-07T18:21:49.337Z,46.80
2018-05-07T18:24:17.078Z,47.40
2018-05-07T18:26:45.781Z,56.30
2018-05-07T18:29:13.135Z,47.30
2018-05-07T18:31:41.807Z,47.80
2018-05-07T18:36:38.560Z,49.00
2018-05-07T18:39:06.642Z,57.50
2018-05-07T18:41:33.509Z,56.90
2018-05-07T18:44:01.054Z,51.90
2018-05-07T18:46:28.714Z,53.40
2018-05-07T18:48:56.489Z,54.10
2018-05-07T18:51:28.398Z,62.00
2018-05-07T18:53:55.842Z,62.30
2018-05-07T19:03:54.625Z,90.60
2018-05-07T19:06:21.981Z,94.40
2018-05-07T19:08:49.749Z,97.90
2018-05-07T19:11:16.973Z,99.90
2018-05-07T19:13:46.201Z,99.90
2018-05-07T19:16:13.750Z,99.90
2018-05-07T19:18:41.435Z,99.90
2018-05-07T19:21:08.406Z,99.90
2018-05-07T19:23:36.281Z,99.90
2018-05-07T19:26:04.092Z,99.90
2018-05-07T19:28:32.791Z,99.90
2018-05-07T19:31:00.406Z,99.90
2018-05-07T19:35:55.557Z,99.90
2018-05-07T19:38:24.352Z,99.90
2018-05-07T19:40:52.077Z,99.90
2018-05-07T19:45:53.047Z,99.90
2018-05-07T19:48:20.612Z,99.90
2018-05-07T19:50:47.446Z,99.90
2018-05-07T19:53:14.248Z,99.90
2018-05-07T19:55:42.885Z,99.90
2018-05-07T19:58:12.435Z,99.90
2018-05-07T20:00:40.609Z,99.90
2018-05-07T20:03:07.414Z,99.90
2018-05-07T20:05:37.778Z,99.90
2018-05-07T20:08:08.193Z,99.90
2018-05-07T20:10:37.162Z,99.90
2018-05-07T20:13:04.454Z,99.90
2018-05-07T20:15:32.197Z,99.90
2018-05-07T20:17:58.953Z,99.90
2018-05-07T20:20:25.812Z,99.90
2018-05-07T20:22:54.104Z,99.90
2018-05-07T20:27:49.860Z,99.90
2018-05-07T20:30:17.152Z,99.90
2018-05-07T20:32:44.194Z,99.90
2018-05-07T20:35:11.629Z,99.90
2018-05-07T20:37:40.549Z,99.90
2018-05-07T20:40:07.302Z,99.90
2018-05-07T20:42:33.845Z,99.90
2018-05-07T20:45:01.766Z,99.90
2018-05-07T20:47:31.034Z,99.90
2018-05-07T20:49:58.029Z,99.90
2018-05-07T20:52:29.669Z,99.90
2018-05-07T20:54:57.840Z,99.90
2018-05-07T20:57:24.605Z,99.90
2018-05-07T20:59:52.246Z,99.90
2018-05-07T21:04:47.125Z,99.90
2018-05-07T21:07:14.642Z,99.90
2018-05-07T21:14:47.470Z,99.90
2018-05-07T21:17:15.009Z,99.90
2018-05-07T21:19:43.949Z,99.90
2018-05-07T21:22:11.741Z,99.90
2018-05-07T21:24:39.200Z,99.90
2018-05-07T21:27:05.853Z,99.90
2018-05-07T21:29:34.402Z,99.90
2018-05-07T21:32:01.295Z,99.90
2018-05-07T21:34:28.111Z,99.90
2018-05-07T21:36:56.159Z,99.90
2018-05-07T21:39:22.628Z,99.90
2018-05-07T21:41:49.144Z,99.90
2018-05-07T21:44:15.803Z,99.90
2018-05-07T21:46:47.012Z,99.90
2018-05-07T21:51:42.055Z,99.90
2018-05-07T21:54:08.530Z,99.90
2018-05-07T21:56:35.864Z,99.90
2018-05-07T21:59:03.285Z,99.90
2018-05-07T22:03:58.874Z,99.90
2018-05-07T22:06:25.634Z,99.90
2018-05-07T22:08:52.100Z,99.90
2018-05-07T22:13:49.275Z,99.90
2018-05-07T22:16:18.837Z,99.90
2018-05-07T22:18:46.113Z,99.90
2018-05-07T22:21:12.613Z,99.90
2018-05-07T22:23:39.433Z,99.90
2018-05-07T22:26:07.146Z,99.90
2018-05-07T22:28:38.394Z,99.90
2018-05-07T22:31:05.079Z,99.90
2018-05-07T22:33:32.398Z,99.90
2018-05-07T22:35:59.256Z,99.90
2018-05-07T22:38:26.216Z,99.90
2018-05-07T22:40:53.678Z,99.90
2018-05-07T22:43:21.117Z,99.90
2018-05-07T22:48:15.874Z,99.90
2018-05-07T22:50:42.374Z,99.90
2018-05-07T22:53:08.829Z,99.90
2018-05-07T22:55:36.077Z,99.90
2018-05-07T22:58:04.398Z,99.90
2018-05-07T23:00:32.223Z,99.90
2018-05-07T23:03:00.664Z,99.90
2018-05-07T23:05:27.441Z,99.90
2018-05-07T23:07:54.607Z,99.90
2018-05-07T23:12:50.435Z,99.90
2018-05-07T23:15:17.098Z,99.90
2018-05-07T23:17:45.367Z,99.90
2018-05-07T23:20:12.052Z,99.90
2018-05-07T23:22:39.115Z,99.90
2018-05-07T23:25:07.604Z,99.90
2018-05-07T23:27:34.469Z,99.90
2018-05-07T23:30:01.060Z,99.90
2018-05-07T23:32:27.951Z,99.90
2018-05-07T23:34:55.374Z,99.90
2018-05-07T23:37:21.843Z,99.90
2018-05-07T23:39:50.548Z,99.90
2018-05-07T23:42:19.538Z,99.90
2018-05-07T23:44:50.068Z,99.90
2018-05-07T23:47:17.778Z,99.90
2018-05-07T23:49:44.525Z,99.90
2018-05-07T23:52:10.924Z,99.90
2018-05-07T23:54:38.704Z,99.90
2018-05-07T23:57:06.474Z,99.90
2018-05-07T23:59:33.188Z,99.90
